createdAt,value
2019-02-20T00:01:31.657Z,78.40
2019-02-20T00:04:00.715Z,78.80
2019-02-20T00:06:29.099Z,78.80
2019-02-20T00:08:57.529Z,79.00
2019-02-20T00:11:26.670Z,78.70
2019-02-20T00:13:54.928Z,78.70
2019-02-20T00:16:23.257Z,78.50
2019-02-20T00:18:52.310Z,78.90
2019-02-20T00:21:20.682Z,78.30
2019-02-20T00:23:49.059Z,78.60
2019-02-20T00:26:17.345Z,79.00
2019-02-20T00:28:45.753Z,79.30
2019-02-20T00:31:14.132Z,79.50
2019-02-20T00:33:42.415Z,79.60
2019-02-20T00:36:11.474Z,79.70
2019-02-20T00:38:39.774Z,79.70
2019-02-20T00:41:08.064Z,79.60
2019-02-20T00:43:36.338Z,79.70
2019-02-20T00:46:07.091Z,79.70
2019-02-20T00:48:39.911Z,79.30
2019-02-20T00:51:08.828Z,79.00
2019-02-20T00:53:41.482Z,79.30
2019-02-20T00:56:09.855Z,79.70
2019-02-20T00:58:38.155Z,80.00
2019-02-20T01:01:06.507Z,80.30
2019-02-20T01:03:34.802Z,79.70
2019-02-20T01:06:04.904Z,79.60
2019-02-20T01:08:31.479Z,79.80
2019-02-20T01:10:59.823Z,80.10
2019-02-20T01:13:28.121Z,80.50
2019-02-20T01:15:56.505Z,80.40
2019-02-20T01:18:25.569Z,79.70
2019-02-20T01:20:53.939Z,79.70
2019-02-20T01:23:22.310Z,79.50
2019-02-20T01:25:50.704Z,79.90
2019-02-20T01:28:19.015Z,80.20
2019-02-20T01:30:48.123Z,79.90
2019-02-20T01:33:16.648Z,79.90
2019-02-20T01:35:44.866Z,80.00
2019-02-20T01:38:14.024Z,79.90
2019-02-20T01:40:42.332Z,79.90
2019-02-20T01:43:10.676Z,79.60
2019-02-20T01:45:39.035Z,79.80
2019-02-20T01:48:07.540Z,80.10
2019-02-20T01:50:35.814Z,80.60
2019-02-20T01:53:10.383Z,80.50
2019-02-20T01:55:32.492Z,80.60
2019-02-20T01:58:00.742Z,80.60
2019-02-20T02:00:29.035Z,80.30
2019-02-20T02:02:57.363Z,80.00
2019-02-20T02:05:26.526Z,80.50
2019-02-20T02:07:54.858Z,80.40
2019-02-20T02:10:23.159Z,80.50
2019-02-20T02:12:51.542Z,80.70
2019-02-20T02:15:20.723Z,80.70
2019-02-20T02:17:48.171Z,81.00
2019-02-20T02:20:17.295Z,80.60
2019-02-20T02:22:46.355Z,80.40
2019-02-20T02:25:14.729Z,80.30
2019-02-20T02:27:43.123Z,80.40
2019-02-20T02:30:11.496Z,80.00
2019-02-20T02:32:39.870Z,80.30
2019-02-20T02:35:08.249Z,80.40
2019-02-20T02:37:36.660Z,80.40
2019-02-20T02:40:05.040Z,80.50
2019-02-20T02:42:33.371Z,80.30
2019-02-20T02:45:01.837Z,80.40
2019-02-20T02:47:30.168Z,80.70
2019-02-20T02:49:59.266Z,80.80
2019-02-20T02:52:27.566Z,80.40
2019-02-20T02:54:55.893Z,80.20
2019-02-20T02:57:24.186Z,80.10
2019-02-20T02:59:53.245Z,80.60
2019-02-20T03:02:21.628Z,80.60
2019-02-20T03:04:49.987Z,81.10
2019-02-20T03:07:18.268Z,81.40
2019-02-20T03:09:46.656Z,81.80
2019-02-20T03:12:14.990Z,81.80
2019-02-20T03:14:43.347Z,81.90
2019-02-20T03:17:11.637Z,81.80
2019-02-20T03:19:39.958Z,81.70
2019-02-20T03:22:08.247Z,81.90
2019-02-20T03:24:36.558Z,82.30
2019-02-20T03:27:05.842Z,83.60
2019-02-20T03:29:34.190Z,83.60
2019-02-20T03:32:02.494Z,84.40
2019-02-20T03:34:30.763Z,84.10
2019-02-20T03:36:59.106Z,83.80
2019-02-20T03:39:27.487Z,83.40
2019-02-20T03:41:55.786Z,83.00
2019-02-20T03:44:24.091Z,82.50
2019-02-20T03:46:53.254Z,82.40
2019-02-20T03:49:21.569Z,82.40
2019-02-20T03:51:50.715Z,82.60
2019-02-20T03:54:19.012Z,82.60
2019-02-20T03:56:47.328Z,83.50
2019-02-20T03:59:15.664Z,84.10
2019-02-20T04:01:43.965Z,84.50
2019-02-20T04:04:13.119Z,86.10
2019-02-20T04:06:41.540Z,86.10
2019-02-20T04:09:09.768Z,85.80
2019-02-20T04:11:38.149Z,85.80
2019-02-20T04:14:06.423Z,85.60
2019-02-20T04:16:34.711Z,85.30
2019-02-20T04:19:03.004Z,85.40
2019-02-20T04:21:32.067Z,85.50
2019-02-20T04:24:02.893Z,85.40
2019-02-20T04:26:29.127Z,85.30
2019-02-20T04:28:57.420Z,85.10
2019-02-20T04:31:25.780Z,84.60
2019-02-20T04:33:54.155Z,84.30
2019-02-20T04:36:22.569Z,84.40
2019-02-20T04:38:50.863Z,85.10
2019-02-20T04:41:19.902Z,84.70
2019-02-20T04:43:48.244Z,84.70
2019-02-20T04:46:16.552Z,85.50
2019-02-20T04:48:44.891Z,85.60
2019-02-20T04:51:13.211Z,85.50
2019-02-20T04:53:41.502Z,85.60
2019-02-20T04:56:09.825Z,85.10
2019-02-20T04:58:38.107Z,85.10
2019-02-20T05:01:06.436Z,85.10
2019-02-20T05:03:34.741Z,85.10
2019-02-20T05:06:03.100Z,85.00
2019-02-20T05:08:31.449Z,84.90
2019-02-20T05:10:59.822Z,86.00
2019-02-20T05:13:28.115Z,85.90
2019-02-20T05:15:56.506Z,86.20
2019-02-20T05:18:24.851Z,86.30
2019-02-20T05:20:53.263Z,86.40
2019-02-20T05:23:21.611Z,85.80
2019-02-20T05:25:49.922Z,85.70
2019-02-20T05:28:18.313Z,86.10
2019-02-20T05:30:46.664Z,85.80
2019-02-20T05:33:14.927Z,86.00
2019-02-20T05:35:43.331Z,85.80
2019-02-20T05:38:11.649Z,85.70
2019-02-20T05:40:39.937Z,85.60
2019-02-20T05:43:08.211Z,85.50
2019-02-20T05:45:49.039Z,85.70
2019-02-20T05:48:17.372Z,85.70
2019-02-20T05:50:45.653Z,85.80
2019-02-20T05:53:13.944Z,86.00
2019-02-20T05:55:42.192Z,86.10
2019-02-20T05:58:10.522Z,85.80
2019-02-20T06:00:39.559Z,85.20
2019-02-20T06:03:07.847Z,85.20
2019-02-20T06:05:36.339Z,85.40
2019-02-20T06:08:04.805Z,85.50
2019-02-20T06:10:33.208Z,85.70
2019-02-20T06:13:01.472Z,85.90
2019-02-20T06:15:29.722Z,86.20
2019-02-20T06:17:58.071Z,86.40
2019-02-20T06:20:26.382Z,85.60
2019-02-20T06:22:54.668Z,85.50
2019-02-20T06:25:22.991Z,85.50
2019-02-20T06:27:52.018Z,85.60
2019-02-20T06:30:20.295Z,85.60
2019-02-20T06:32:48.674Z,86.40
2019-02-20T06:35:16.963Z,86.40
2019-02-20T06:37:45.331Z,86.10
2019-02-20T06:40:13.710Z,85.80
2019-02-20T06:42:42.047Z,85.70
2019-02-20T06:45:11.082Z,85.40
2019-02-20T06:47:39.399Z,85.40
2019-02-20T06:50:08.565Z,85.20
2019-02-20T06:52:36.847Z,85.20
2019-02-20T06:55:06.024Z,84.80
2019-02-20T06:57:34.282Z,84.50
2019-02-20T07:00:02.666Z,84.50
2019-02-20T07:02:31.002Z,84.60
2019-02-20T07:05:11.313Z,84.70
2019-02-20T07:07:41.256Z,84.80
2019-02-20T07:10:21.474Z,85.20
2019-02-20T07:12:49.855Z,84.40
2019-02-20T07:18:25.979Z,84.30
2019-02-20T07:21:14.731Z,85.50
2019-02-20T07:23:47.575Z,85.20
2019-02-20T07:26:21.860Z,85.20
2019-02-20T07:28:56.606Z,84.80
2019-02-20T07:31:24.991Z,84.30
2019-02-20T07:33:53.266Z,83.70
2019-02-20T07:36:21.649Z,83.70
2019-02-20T07:38:49.926Z,83.30
2019-02-20T07:41:18.328Z,83.10
2019-02-20T07:43:46.675Z,83.20
2019-02-20T07:46:15.365Z,83.90
2019-02-20T07:48:43.639Z,83.20
2019-02-20T07:51:12.017Z,82.60
2019-02-20T07:53:40.382Z,82.60
2019-02-20T07:56:08.683Z,82.70
2019-02-20T07:58:37.077Z,82.90
2019-02-20T08:01:05.382Z,83.70
2019-02-20T08:03:33.693Z,83.40
2019-02-20T08:06:02.021Z,84.80
2019-02-20T08:08:31.110Z,85.80
2019-02-20T08:11:00.349Z,85.40
2019-02-20T08:13:28.653Z,85.40
2019-02-20T08:15:56.973Z,83.70
2019-02-20T08:18:25.295Z,82.70
2019-02-20T08:20:53.566Z,82.10
2019-02-20T08:23:21.943Z,81.90
2019-02-20T08:25:50.235Z,82.30
2019-02-20T08:28:18.632Z,82.00
2019-02-20T08:30:46.988Z,81.20
2019-02-20T08:33:15.367Z,81.60
2019-02-20T08:35:43.669Z,80.50
2019-02-20T08:38:12.747Z,79.40
2019-02-20T08:40:41.145Z,79.30
2019-02-20T08:43:10.203Z,78.40
2019-02-20T08:45:38.505Z,78.20
2019-02-20T08:48:06.767Z,78.10
2019-02-20T08:50:35.020Z,76.60
2019-02-20T08:53:03.399Z,77.30
2019-02-20T08:55:32.517Z,76.90
2019-02-20T08:58:00.191Z,77.20
2019-02-20T09:00:28.509Z,77.30
2019-02-20T09:02:56.808Z,75.60
2019-02-20T09:05:25.237Z,74.30
2019-02-20T09:07:54.317Z,73.10
2019-02-20T09:10:23.358Z,72.80
2019-02-20T09:12:51.645Z,72.70
2019-02-20T09:15:20.044Z,73.30
2019-02-20T09:17:48.334Z,74.20
2019-02-20T09:20:17.378Z,73.50
2019-02-20T09:22:45.702Z,73.50
2019-02-20T09:25:19.770Z,73.20
2019-02-20T09:27:43.898Z,73.20
2019-02-20T09:30:12.952Z,73.00
2019-02-20T09:32:41.252Z,72.80
2019-02-20T09:35:11.148Z,73.00
2019-02-20T09:37:39.440Z,73.00
2019-02-20T09:40:17.875Z,71.50
2019-02-20T09:42:46.938Z,70.40
2019-02-20T09:45:15.318Z,70.30
2019-02-20T09:47:43.619Z,68.30
2019-02-20T09:50:11.908Z,62.70
2019-02-20T09:52:40.203Z,60.60
2019-02-20T09:55:08.519Z,57.30
2019-02-20T09:57:36.887Z,57.60
2019-02-20T10:00:14.080Z,55.60
2019-02-20T10:02:42.451Z,54.60
2019-02-20T10:05:10.726Z,54.70
2019-02-20T10:07:39.049Z,53.60
2019-02-20T10:10:09.116Z,53.20
2019-02-20T10:12:37.415Z,53.10
2019-02-20T10:15:07.113Z,53.40
2019-02-20T10:17:35.410Z,53.80
2019-02-20T10:20:04.008Z,56.50
2019-02-20T10:22:32.243Z,55.30
2019-02-20T10:25:00.618Z,57.30
2019-02-20T10:27:28.953Z,56.10
2019-02-20T10:29:57.249Z,55.70
2019-02-20T10:32:25.643Z,53.10
2019-02-20T10:34:54.028Z,52.80
2019-02-20T10:37:22.407Z,52.40
2019-02-20T10:39:50.672Z,52.10
2019-02-20T10:42:18.990Z,51.00
2019-02-20T10:44:48.157Z,53.70
2019-02-20T10:47:16.451Z,53.70
2019-02-20T10:49:44.719Z,53.70
2019-02-20T10:52:13.004Z,51.60
2019-02-20T10:54:42.075Z,52.20
2019-02-20T10:57:10.361Z,51.90
2019-02-20T10:59:38.682Z,51.80
2019-02-20T11:02:06.973Z,54.30
2019-02-20T11:04:35.403Z,55.00
2019-02-20T11:07:03.693Z,53.60
2019-02-20T11:09:32.002Z,53.40
2019-02-20T11:12:00.248Z,54.60
2019-02-20T11:14:29.353Z,55.20
2019-02-20T11:16:57.677Z,55.10
2019-02-20T11:19:25.941Z,54.10
2019-02-20T11:21:54.361Z,54.00
2019-02-20T11:24:23.403Z,55.20
2019-02-20T11:26:54.999Z,55.20
2019-02-20T11:29:20.808Z,56.40
2019-02-20T11:31:49.137Z,56.40
2019-02-20T11:34:17.461Z,55.80
2019-02-20T11:36:45.734Z,55.10
2019-02-20T11:39:15.631Z,55.80
2019-02-20T11:41:43.927Z,55.80
2019-02-20T11:44:20.843Z,55.80
2019-02-20T11:46:42.059Z,55.80
2019-02-20T11:49:10.517Z,55.50
2019-02-20T11:51:38.831Z,55.20
2019-02-20T11:54:07.115Z,55.10
2019-02-20T11:56:35.532Z,55.70
2019-02-20T11:59:03.817Z,56.60
2019-02-20T12:01:32.867Z,57.40
2019-02-20T12:04:01.151Z,57.40
2019-02-20T12:06:29.523Z,58.50
2019-02-20T12:08:57.833Z,59.20
2019-02-20T12:11:26.092Z,58.90
2019-02-20T12:13:54.383Z,58.40
2019-02-20T12:16:22.735Z,58.20
2019-02-20T12:18:50.998Z,59.90
2019-02-20T12:21:19.292Z,59.10
2019-02-20T12:23:47.935Z,58.30
2019-02-20T12:26:16.240Z,59.10
2019-02-20T12:28:44.544Z,59.20
2019-02-20T12:31:12.891Z,57.80
2019-02-20T12:33:41.272Z,55.90
2019-02-20T12:36:09.683Z,56.00
2019-02-20T12:38:37.969Z,56.10
2019-02-20T12:41:07.082Z,56.80
2019-02-20T12:43:36.217Z,57.10
2019-02-20T12:46:05.839Z,57.10
2019-02-20T12:48:34.229Z,57.90
2019-02-20T12:51:02.599Z,58.00
2019-02-20T12:53:30.883Z,58.00
2019-02-20T12:56:00.703Z,58.00
2019-02-20T12:58:29.855Z,57.80
2019-02-20T13:00:58.169Z,58.10
2019-02-20T13:03:26.527Z,57.10
2019-02-20T13:05:54.796Z,57.60
2019-02-20T13:08:23.175Z,56.90
2019-02-20T13:10:51.555Z,56.30
2019-02-20T13:13:19.936Z,56.70
2019-02-20T13:15:48.196Z,57.00
2019-02-20T13:18:16.564Z,56.80
2019-02-20T13:20:45.702Z,57.50
2019-02-20T13:23:14.033Z,57.50
2019-02-20T13:25:42.330Z,58.30
2019-02-20T13:28:10.642Z,58.30
2019-02-20T13:30:39.903Z,58.50
2019-02-20T13:33:09.242Z,59.40
2019-02-20T13:35:37.502Z,59.20
2019-02-20T13:38:05.824Z,59.10
2019-02-20T13:40:34.100Z,59.60
2019-02-20T13:43:02.385Z,59.00
2019-02-20T13:45:30.703Z,58.70
2019-02-20T13:47:59.789Z,57.90
2019-02-20T13:50:28.148Z,57.90
2019-02-20T13:52:56.443Z,57.70
2019-02-20T13:55:34.070Z,57.60
2019-02-20T13:57:53.071Z,56.80
2019-02-20T14:00:21.356Z,57.10
2019-02-20T14:02:49.659Z,56.60
2019-02-20T14:05:18.722Z,56.70
2019-02-20T14:07:47.096Z,56.70
2019-02-20T14:10:15.388Z,55.80
2019-02-20T14:12:43.686Z,56.50
2019-02-20T14:15:12.771Z,56.10
2019-02-20T14:17:41.031Z,56.00
2019-02-20T14:20:09.387Z,56.30
2019-02-20T14:22:37.771Z,56.40
2019-02-20T14:25:07.075Z,57.20
2019-02-20T14:27:34.425Z,57.10
2019-02-20T14:30:02.726Z,56.60
2019-02-20T14:32:31.797Z,57.30
2019-02-20T14:35:00.329Z,57.30
2019-02-20T14:37:29.274Z,56.40
2019-02-20T14:39:57.738Z,56.40
2019-02-20T14:42:26.137Z,56.90
2019-02-20T14:44:54.472Z,56.80
2019-02-20T14:47:23.599Z,57.00
2019-02-20T14:49:51.982Z,57.00
2019-02-20T14:52:20.348Z,56.80
2019-02-20T14:54:48.737Z,57.40
2019-02-20T14:57:19.517Z,57.30
2019-02-20T14:59:45.483Z,57.70
2019-02-20T15:02:13.947Z,58.30
2019-02-20T15:04:42.283Z,58.60
2019-02-20T15:07:11.334Z,58.50
2019-02-20T15:09:39.707Z,58.50
2019-02-20T15:12:08.126Z,58.90
2019-02-20T15:14:37.291Z,59.40
2019-02-20T15:17:05.625Z,59.30
2019-02-20T15:19:33.973Z,59.30
2019-02-20T15:22:02.326Z,59.70
2019-02-20T15:24:30.707Z,60.00
2019-02-20T15:26:58.991Z,59.50
2019-02-20T15:29:27.298Z,59.90
2019-02-20T15:31:55.591Z,59.80
2019-02-20T15:34:23.919Z,59.60
2019-02-20T15:36:52.235Z,59.40
2019-02-20T15:39:20.700Z,59.30
2019-02-20T15:41:49.806Z,59.10
2019-02-20T15:44:18.084Z,59.10
2019-02-20T15:46:46.539Z,59.50
2019-02-20T15:49:15.595Z,60.70
2019-02-20T15:51:43.941Z,60.70
2019-02-20T15:54:12.266Z,59.80
2019-02-20T15:56:40.539Z,59.40
2019-02-20T15:59:08.826Z,58.90
2019-02-20T16:01:37.132Z,60.80
2019-02-20T16:04:05.434Z,62.60
2019-02-20T16:06:33.743Z,63.80
2019-02-20T16:09:02.048Z,63.90
2019-02-20T16:11:30.552Z,65.60
2019-02-20T16:13:59.585Z,64.70
2019-02-20T16:16:28.312Z,64.70
2019-02-20T16:18:56.242Z,65.60
2019-02-20T16:21:26.043Z,65.80
2019-02-20T16:23:54.332Z,65.80
2019-02-20T16:26:22.634Z,65.90
2019-02-20T16:28:51.699Z,67.60
2019-02-20T16:31:20.071Z,67.60
2019-02-20T16:33:48.402Z,67.70
2019-02-20T16:36:16.642Z,67.90
2019-02-20T16:38:44.924Z,67.70
2019-02-20T16:41:14.090Z,67.80
2019-02-20T16:43:42.417Z,67.80
2019-02-20T16:46:11.466Z,67.80
2019-02-20T16:48:39.780Z,67.80
2019-02-20T16:51:08.934Z,67.70
2019-02-20T16:53:37.253Z,67.70
2019-02-20T16:56:06.441Z,68.40
2019-02-20T16:58:34.735Z,68.40
2019-02-20T17:01:04.333Z,68.30
2019-02-20T17:03:33.380Z,68.90
2019-02-20T17:06:01.756Z,68.80
2019-02-20T17:08:30.135Z,68.90
2019-02-20T17:10:58.519Z,69.10
2019-02-20T17:13:26.922Z,69.50
2019-02-20T17:15:55.199Z,69.50
2019-02-20T17:18:24.258Z,70.40
2019-02-20T17:20:52.540Z,70.20
2019-02-20T17:23:20.835Z,70.30
2019-02-20T17:25:49.906Z,70.40
2019-02-20T17:28:18.206Z,70.40
2019-02-20T17:30:46.608Z,70.00
2019-02-20T17:33:15.679Z,70.80
2019-02-20T17:35:44.736Z,70.80
2019-02-20T17:38:13.060Z,70.80
2019-02-20T17:40:42.107Z,71.20
2019-02-20T17:43:10.388Z,71.20
2019-02-20T17:45:38.763Z,71.10
2019-02-20T17:48:07.091Z,71.50
2019-02-20T17:50:36.135Z,71.90
2019-02-20T17:53:04.458Z,71.80
2019-02-20T17:55:33.519Z,71.50
2019-02-20T17:58:02.495Z,71.30
2019-02-20T18:00:30.779Z,71.50
2019-02-20T18:02:59.116Z,71.50
2019-02-20T18:05:27.404Z,71.60
2019-02-20T18:07:56.436Z,72.20
2019-02-20T18:10:26.343Z,71.90
2019-02-20T18:12:54.724Z,71.90
2019-02-20T18:15:23.020Z,71.70
2019-02-20T18:17:51.317Z,72.00
2019-02-20T18:20:19.638Z,72.20
2019-02-20T18:22:47.930Z,72.40
2019-02-20T18:25:16.215Z,72.70
2019-02-20T18:27:44.530Z,72.60
2019-02-20T18:30:13.688Z,72.50
2019-02-20T18:32:42.061Z,72.90
2019-02-20T18:35:11.144Z,73.20
2019-02-20T18:37:39.448Z,73.30
2019-02-20T18:40:10.603Z,73.60
2019-02-20T18:42:39.705Z,72.90
2019-02-20T18:45:07.971Z,72.90
2019-02-20T18:47:37.032Z,72.60
2019-02-20T18:50:05.390Z,72.60
2019-02-20T18:52:33.723Z,72.70
2019-02-20T18:55:05.947Z,74.00
2019-02-20T18:57:31.601Z,74.00
2019-02-20T19:00:00.652Z,76.10
2019-02-20T19:02:28.916Z,75.50
2019-02-20T19:04:57.254Z,75.60
2019-02-20T19:07:25.577Z,75.20
2019-02-20T19:09:53.953Z,75.10
2019-02-20T19:12:27.920Z,74.70
2019-02-20T19:18:07.159Z,74.60
2019-02-20T19:20:36.343Z,74.80
2019-02-20T19:23:10.369Z,74.60
2019-02-20T19:25:43.119Z,74.60
2019-02-20T19:28:18.954Z,74.60
2019-02-20T19:30:55.967Z,74.70
2019-02-20T19:36:42.457Z,75.00
2019-02-20T19:39:16.389Z,74.70
2019-02-20T19:45:02.721Z,75.10
2019-02-20T19:47:37.711Z,75.30
2019-02-20T19:50:24.377Z,75.20
2019-02-20T19:52:52.630Z,75.50
2019-02-20T19:55:24.653Z,75.50
2019-02-20T19:57:57.640Z,75.30
2019-02-20T20:00:28.881Z,75.00
2019-02-20T20:03:06.619Z,74.60
2019-02-20T20:05:39.259Z,74.80
2019-02-20T20:08:16.208Z,74.80
2019-02-20T20:11:01.056Z,74.80
2019-02-20T20:13:30.128Z,74.70
2019-02-20T20:15:58.489Z,74.60
2019-02-20T20:18:48.801Z,75.70
2019-02-20T20:21:20.839Z,75.70
2019-02-20T20:23:58.536Z,76.10
2019-02-20T20:26:50.790Z,76.00
2019-02-20T20:32:28.775Z,76.20
2019-02-20T20:35:00.600Z,76.40
2019-02-20T20:37:30.596Z,76.30
2019-02-20T20:40:09.508Z,76.30
2019-02-20T20:45:38.221Z,76.30
2019-02-20T20:48:15.306Z,76.20
2019-02-20T20:50:46.104Z,77.50
2019-02-20T20:56:20.789Z,76.70
2019-02-20T20:58:51.799Z,77.20
2019-02-20T21:01:30.792Z,77.40
2019-02-20T21:04:07.866Z,78.00
2019-02-20T21:12:49.624Z,78.90
2019-02-20T21:15:38.491Z,79.50
2019-02-20T21:18:18.410Z,80.10
2019-02-20T21:20:47.587Z,79.80
2019-02-20T21:26:33.416Z,79.90
2019-02-20T21:29:15.271Z,80.00
2019-02-20T21:31:53.753Z,80.00
2019-02-20T21:34:23.580Z,80.00
2019-02-20T21:37:01.741Z,80.10
2019-02-20T21:39:33.785Z,79.80
2019-02-20T21:42:12.639Z,80.20
2019-02-20T21:44:43.534Z,80.40
2019-02-20T21:47:16.057Z,79.80
2019-02-20T21:52:49.517Z,79.50
2019-02-20T21:58:29.336Z,79.10
2019-02-20T22:04:24.809Z,79.90
2019-02-20T22:07:04.749Z,80.80
2019-02-20T22:09:34.531Z,80.80
2019-02-20T22:12:18.609Z,81.30
2019-02-20T22:15:20.372Z,81.50
2019-02-20T22:17:52.653Z,81.50
2019-02-20T22:23:36.501Z,80.50
2019-02-20T22:26:09.477Z,80.40
2019-02-20T22:28:40.282Z,80.40
2019-02-20T22:31:22.291Z,81.30
2019-02-20T22:33:51.953Z,81.40
2019-02-20T22:36:20.283Z,82.00
2019-02-20T22:39:00.760Z,82.50
2019-02-20T22:41:41.739Z,83.70
2019-02-20T22:47:14.301Z,83.50
2019-02-20T22:49:48.076Z,83.90
2019-02-20T22:52:17.097Z,84.10
2019-02-20T22:54:55.288Z,84.10
2019-02-20T22:57:41.151Z,84.40
2019-02-20T23:00:20.489Z,84.60
2019-02-20T23:03:00.896Z,85.20
2019-02-20T23:05:47.875Z,85.40
2019-02-20T23:08:36.723Z,86.10
2019-02-20T23:11:07.527Z,86.30
2019-02-20T23:13:48.357Z,86.80
2019-02-20T23:16:16.761Z,86.70
2019-02-20T23:18:45.103Z,86.70
2019-02-20T23:21:13.392Z,87.40
2019-02-20T23:23:41.816Z,86.70
2019-02-20T23:26:10.909Z,86.70
2019-02-20T23:28:39.974Z,86.70
2019-02-20T23:31:08.332Z,86.60
2019-02-20T23:33:36.718Z,87.60
2019-02-20T23:36:04.987Z,87.10
2019-02-20T23:38:33.262Z,87.00
2019-02-20T23:41:01.637Z,86.80
2019-02-20T23:43:30.016Z,86.60
2019-02-20T23:45:58.386Z,86.50
2019-02-20T23:48:26.784Z,86.30
2019-02-20T23:50:55.051Z,86.20
2019-02-20T23:53:23.337Z,86.80
2019-02-20T23:55:51.695Z,86.50
2019-02-20T23:58:19.981Z,86.60
